createdAt,value
2022-08-29T00:00:16.580Z,80.54
2022-08-29T00:05:42.834Z,80.51
2022-08-29T00:10:56.297Z,80.84
2022-08-29T00:16:02.334Z,81.30
2022-08-29T00:21:08.810Z,82.30
2022-08-29T00:26:15.044Z,82.50
2022-08-29T00:31:21.029Z,83.14
2022-08-29T00:36:27.101Z,83.44
2022-08-29T00:41:36.500Z,83.29
2022-08-29T00:46:54.247Z,84.16
2022-08-29T00:52:05.439Z,84.44
2022-08-29T00:57:11.917Z,84.21
2022-08-29T01:02:19.175Z,84.67
2022-08-29T01:07:25.280Z,84.49
2022-08-29T01:12:31.375Z,85.21
2022-08-29T01:17:43.933Z,85.90
2022-08-29T01:22:59.051Z,86.46
2022-08-29T01:28:12.031Z,87.31
2022-08-29T01:33:18.039Z,87.38
2022-08-29T01:38:29.967Z,87.35
2022-08-29T01:43:42.412Z,87.55
2022-08-29T01:48:48.989Z,87.73
2022-08-29T01:53:55.265Z,87.50
2022-08-29T01:59:03.726Z,87.66
2022-08-29T02:04:10.030Z,88.18
2022-08-29T02:09:16.070Z,88.45
2022-08-29T02:14:23.585Z,88.68
2022-08-29T02:19:29.543Z,88.80
2022-08-29T02:24:35.924Z,88.70
2022-08-29T02:29:42.117Z,88.51
2022-08-29T02:34:48.546Z,89.06
2022-08-29T02:39:54.831Z,89.65
2022-08-29T02:45:01.258Z,90.12
2022-08-29T02:50:09.664Z,90.98
2022-08-29T02:55:18.329Z,91.33
2022-08-29T03:00:27.386Z,91.91
2022-08-29T03:06:53.654Z,91.91
2022-08-29T03:11:59.571Z,92.00
2022-08-29T03:17:05.809Z,91.72
2022-08-29T03:22:11.849Z,91.69
2022-08-29T03:27:19.088Z,91.75
2022-08-29T03:32:25.840Z,91.72
2022-08-29T03:37:32.727Z,91.76
2022-08-29T03:42:38.893Z,91.70
2022-08-29T03:47:44.899Z,91.96
2022-08-29T03:52:51.531Z,91.75
2022-08-29T03:57:57.665Z,91.70
2022-08-29T04:03:03.912Z,91.85
2022-08-29T04:08:09.985Z,91.95
2022-08-29T04:13:15.883Z,92.10
2022-08-29T04:18:22.555Z,91.97
2022-08-29T04:23:28.423Z,91.71
2022-08-29T04:28:34.402Z,91.77
2022-08-29T04:33:41.165Z,91.56
2022-08-29T04:38:47.066Z,91.15
2022-08-29T04:43:53.547Z,91.18
2022-08-29T04:49:03.969Z,91.34
2022-08-29T04:54:10.474Z,91.44
2022-08-29T04:59:17.105Z,91.49
2022-08-29T05:04:25.278Z,91.11
2022-08-29T05:09:31.213Z,91.12
2022-08-29T05:14:51.496Z,90.73
2022-08-29T05:20:39.971Z,91.55
2022-08-29T05:32:18.519Z,91.27
2022-08-29T05:38:19.429Z,90.57
2022-08-29T05:43:54.468Z,90.55
2022-08-29T06:01:08.025Z,89.94
2022-08-29T06:06:14.122Z,90.02
2022-08-29T06:11:22.613Z,89.80
2022-08-29T06:16:29.857Z,89.77
2022-08-29T06:21:35.861Z,89.94
2022-08-29T06:26:42.869Z,89.87
2022-08-29T06:32:07.325Z,89.42
2022-08-29T06:37:13.481Z,87.63
2022-08-29T06:42:23.913Z,85.63
2022-08-29T06:47:34.555Z,84.38
2022-08-29T06:52:40.553Z,84.12
2022-08-29T06:57:47.034Z,84.27
2022-08-29T07:02:53.780Z,83.51
2022-08-29T07:07:59.745Z,82.41
2022-08-29T07:13:05.597Z,81.62
2022-08-29T07:18:11.935Z,81.93
2022-08-29T07:23:18.263Z,81.25
2022-08-29T07:28:24.190Z,80.73
2022-08-29T07:33:30.166Z,80.71
2022-08-29T07:38:36.541Z,79.93
2022-08-29T07:43:43.449Z,79.70
2022-08-29T07:48:49.530Z,80.77
2022-08-29T07:53:56.812Z,81.34
2022-08-29T07:59:02.666Z,81.97
2022-08-29T08:04:11.045Z,82.49
2022-08-29T08:09:17.009Z,81.75
2022-08-29T08:14:22.888Z,81.26
2022-08-29T08:19:40.865Z,80.71
2022-08-29T08:24:48.557Z,79.92
2022-08-29T08:29:55.557Z,78.68
2022-08-29T08:35:04.529Z,76.81
2022-08-29T08:40:19.816Z,73.12
2022-08-29T08:45:33.476Z,71.67
2022-08-29T08:50:54.513Z,70.80
2022-08-29T08:56:04.873Z,70.94
2022-08-29T09:01:18.758Z,71.44
2022-08-29T09:06:37.887Z,71.74
2022-08-29T09:11:56.362Z,70.31
2022-08-29T09:17:04.108Z,65.06
2022-08-29T09:22:16.595Z,63.80
2022-08-29T09:27:24.278Z,64.62
2022-08-29T09:32:30.198Z,66.33
2022-08-29T09:37:36.915Z,64.80
2022-08-29T09:42:49.731Z,64.30
2022-08-29T09:48:14.393Z,64.51
2022-08-29T09:53:25.478Z,64.70
2022-08-29T09:58:39.929Z,60.31
2022-08-29T10:03:58.577Z,58.71
2022-08-29T10:09:09.175Z,57.44
2022-08-29T10:14:23.511Z,57.94
2022-08-29T10:19:33.129Z,56.38
2022-08-29T10:24:57.826Z,55.68
2022-08-29T10:30:12.508Z,55.71
2022-08-29T10:35:24.469Z,56.57
2022-08-29T10:40:43.226Z,50.95
2022-08-29T10:46:04.070Z,47.38
2022-08-29T10:51:21.558Z,48.68
2022-08-29T10:56:33.007Z,49.02
2022-08-29T11:01:43.988Z,49.96
2022-08-29T11:06:58.195Z,50.82
2022-08-29T11:12:12.510Z,51.69
2022-08-29T11:17:26.338Z,53.40
2022-08-29T11:22:37.693Z,53.04
2022-08-29T11:27:53.604Z,49.81
2022-08-29T11:33:14.888Z,47.53
2022-08-29T11:38:49.780Z,46.33
2022-08-29T11:44:05.541Z,43.87
2022-08-29T11:49:41.977Z,42.42
2022-08-29T11:55:09.861Z,41.31
2022-08-29T12:00:42.669Z,40.18
2022-08-29T12:06:01.716Z,40.20
2022-08-29T12:11:07.724Z,39.60
2022-08-29T12:16:15.687Z,39.98
2022-08-29T12:21:47.177Z,40.02
2022-08-29T12:26:54.835Z,40.47
2022-08-29T12:32:43.226Z,40.29
2022-08-29T12:38:01.469Z,40.61
2022-08-29T12:43:29.446Z,41.03
2022-08-29T12:48:41.158Z,41.29
2022-08-29T12:53:50.725Z,41.53
2022-08-29T12:58:58.993Z,42.23
2022-08-29T13:04:13.510Z,41.61
2022-08-29T13:09:28.254Z,40.73
2022-08-29T13:14:36.118Z,40.94
2022-08-29T13:20:04.647Z,39.96
2022-08-29T13:25:10.791Z,40.45
2022-08-29T13:30:24.755Z,39.83
2022-08-29T13:35:33.053Z,39.74
2022-08-29T13:40:45.638Z,42.03
2022-08-29T13:46:00.823Z,42.17
2022-08-29T13:51:07.272Z,41.13
2022-08-29T13:56:23.235Z,40.83
2022-08-29T14:01:29.842Z,39.20
2022-08-29T14:06:36.726Z,39.29
2022-08-29T14:11:45.242Z,38.80
2022-08-29T14:16:53.688Z,38.98
2022-08-29T14:22:00.653Z,39.30
2022-08-29T14:27:08.521Z,39.90
2022-08-29T14:32:14.444Z,40.56
2022-08-29T14:37:20.924Z,39.59
2022-08-29T14:42:27.168Z,40.10
2022-08-29T14:47:33.563Z,39.60
2022-08-29T14:52:39.739Z,40.29
2022-08-29T14:57:45.653Z,40.67
2022-08-29T15:02:52.411Z,40.92
2022-08-29T15:08:00.720Z,40.93
2022-08-29T15:13:10.486Z,41.70
2022-08-29T15:18:42.788Z,42.39
2022-08-29T15:23:44.686Z,42.47
2022-08-29T15:28:50.626Z,42.38
2022-08-29T15:33:56.534Z,42.52
2022-08-29T15:39:05.820Z,42.77
2022-08-29T15:44:12.063Z,43.06
2022-08-29T15:49:18.743Z,42.98
2022-08-29T15:54:26.001Z,43.55
2022-08-29T15:59:56.720Z,43.85
2022-08-29T16:04:59.984Z,44.68
2022-08-29T16:10:11.149Z,45.21
2022-08-29T16:15:18.297Z,45.60
2022-08-29T16:20:24.099Z,45.97
2022-08-29T16:25:31.258Z,46.48
2022-08-29T16:30:44.251Z,46.87
2022-08-29T16:35:52.297Z,47.45
2022-08-29T16:41:05.054Z,48.23
2022-08-29T16:46:12.291Z,48.23
2022-08-29T16:51:19.001Z,49.09
2022-08-29T16:56:25.150Z,49.14
2022-08-29T17:01:33.254Z,50.08
2022-08-29T17:06:39.712Z,50.21
2022-08-29T17:11:45.991Z,50.19
2022-08-29T17:16:54.037Z,50.49
2022-08-29T17:22:00.014Z,50.91
2022-08-29T17:27:06.001Z,51.19
2022-08-29T17:32:24.126Z,51.50
2022-08-29T17:37:36.430Z,52.35
2022-08-29T17:43:16.504Z,53.15
2022-08-29T17:48:33.896Z,54.45
2022-08-29T17:53:45.828Z,55.37
2022-08-29T17:59:05.930Z,56.38
2022-08-29T18:04:20.668Z,57.65
2022-08-29T18:09:26.730Z,58.27
2022-08-29T18:14:33.654Z,59.49
2022-08-29T18:19:40.003Z,60.36
2022-08-29T18:24:48.934Z,60.78
2022-08-29T18:29:55.409Z,61.31
2022-08-29T18:50:36.462Z,62.96
2022-08-29T18:55:51.222Z,63.21
2022-08-29T19:00:59.560Z,63.61
2022-08-29T19:06:05.866Z,63.83
2022-08-29T19:11:11.881Z,64.01
2022-08-29T19:16:19.488Z,64.32
2022-08-29T19:21:26.188Z,64.30
2022-08-29T19:26:38.010Z,64.68
2022-08-29T19:31:46.363Z,64.68
2022-08-29T19:36:52.168Z,64.81
2022-08-29T19:41:58.245Z,64.84
2022-08-29T19:47:04.526Z,64.73
2022-08-29T19:52:10.918Z,64.80
2022-08-29T19:57:16.997Z,65.03
2022-08-29T20:02:22.960Z,65.10
2022-08-29T20:07:29.260Z,65.19
2022-08-29T20:12:37.942Z,65.26
2022-08-29T20:17:44.864Z,65.53
2022-08-29T20:22:51.377Z,65.59
2022-08-29T20:27:57.500Z,66.07
2022-08-29T20:33:04.674Z,66.26
2022-08-29T20:38:12.604Z,66.51
2022-08-29T20:43:19.662Z,66.84
2022-08-29T20:48:31.091Z,67.04
2022-08-29T20:53:38.562Z,67.39
2022-08-29T20:58:45.459Z,67.76
2022-08-29T21:04:10.385Z,68.05
2022-08-29T21:09:16.347Z,68.22
2022-08-29T21:14:22.847Z,68.76
2022-08-29T21:19:29.988Z,69.19
2022-08-29T21:24:36.131Z,69.34
2022-08-29T21:29:43.585Z,69.80
2022-08-29T21:34:49.546Z,70.01
2022-08-29T21:39:55.404Z,70.46
2022-08-29T21:45:01.725Z,70.74
2022-08-29T21:50:08.933Z,70.95
2022-08-29T21:55:15.721Z,71.06
2022-08-29T22:00:25.049Z,71.58
2022-08-29T22:05:31.639Z,71.79
2022-08-29T22:10:38.876Z,72.27
2022-08-29T22:16:03.995Z,72.27
2022-08-29T22:21:15.187Z,72.44
2022-08-29T22:26:21.890Z,72.82
2022-08-29T22:31:28.115Z,73.14
2022-08-29T22:36:34.876Z,73.54
2022-08-29T22:41:44.199Z,73.74
2022-08-29T22:46:54.014Z,73.98
2022-08-29T22:52:00.394Z,74.20
2022-08-29T22:57:09.089Z,74.51
2022-08-29T23:02:16.303Z,75.16
2022-08-29T23:07:22.283Z,75.36
2022-08-29T23:12:28.658Z,75.77
2022-08-29T23:17:34.552Z,76.12
2022-08-29T23:22:42.877Z,76.38
2022-08-29T23:27:48.949Z,76.53
2022-08-29T23:32:54.866Z,76.96
2022-08-29T23:38:00.722Z,77.29
2022-08-29T23:43:07.312Z,77.58
2022-08-29T23:48:13.283Z,77.93
2022-08-29T23:53:19.977Z,78.36
2022-08-29T23:58:25.779Z,78.42
